createdAt,value
2023-02-05T00:00:52.274Z,5.38
2023-02-05T00:01:55.250Z,4.71
2023-02-05T00:02:58.331Z,3.95
2023-02-05T00:04:01.071Z,3.59
2023-02-05T00:05:04.586Z,5.69
2023-02-05T00:06:07.508Z,5.76
2023-02-05T00:07:10.300Z,5.51
2023-02-05T00:08:13.387Z,6.27
2023-02-05T00:09:19.528Z,5.47
2023-02-05T00:10:22.559Z,4.12
2023-02-05T00:11:25.771Z,5.08
2023-02-05T00:12:28.862Z,5.35
2023-02-05T00:13:31.834Z,4.50
2023-02-05T00:14:34.503Z,5.35
2023-02-05T00:15:37.699Z,5.51
2023-02-05T00:16:40.646Z,4.75
2023-02-05T00:17:43.528Z,5.65
2023-02-05T00:18:46.597Z,4.12
2023-02-05T00:19:49.398Z,5.04
2023-02-05T00:20:52.489Z,4.55
2023-02-05T00:21:55.365Z,6.10
2023-02-05T00:22:57.903Z,6.94
2023-02-05T00:24:00.772Z,7.93
2023-02-05T00:25:03.759Z,5.34
2023-02-05T00:26:06.846Z,4.10
2023-02-05T00:27:09.558Z,4.35
2023-02-05T00:28:12.641Z,6.20
2023-02-05T00:29:15.452Z,4.04
2023-02-05T00:30:18.637Z,4.81
2023-02-05T00:31:21.943Z,5.82
2023-02-05T00:32:25.418Z,4.05
2023-02-05T00:33:28.392Z,4.76
2023-02-05T00:34:31.531Z,6.47
2023-02-05T00:35:34.943Z,5.81
2023-02-05T00:36:38.347Z,5.20
2023-02-05T00:37:41.646Z,5.10
2023-02-05T00:38:44.709Z,5.65
2023-02-05T00:39:47.700Z,7.29
2023-02-05T00:40:50.564Z,6.26
2023-02-05T00:41:53.949Z,5.03
2023-02-05T00:42:56.743Z,3.99
2023-02-05T00:43:59.820Z,5.42
2023-02-05T00:45:02.889Z,5.08
2023-02-05T00:46:06.051Z,4.47
2023-02-05T00:47:09.472Z,5.50
2023-02-05T00:48:12.677Z,6.03
2023-02-05T00:49:16.025Z,4.78
2023-02-05T00:50:18.904Z,4.00
2023-02-05T00:51:21.897Z,4.63
2023-02-05T00:52:25.193Z,6.12
2023-02-05T00:53:28.229Z,6.88
2023-02-05T00:54:31.435Z,3.72
2023-02-05T00:55:34.808Z,4.46
2023-02-05T00:56:37.888Z,3.70
2023-02-05T00:57:41.270Z,4.81
2023-02-05T00:58:44.473Z,5.08
2023-02-05T00:59:47.947Z,3.62
2023-02-05T01:00:51.366Z,4.09
2023-02-05T01:01:54.412Z,5.24
2023-02-05T01:02:57.701Z,5.79
2023-02-05T01:04:01.113Z,5.48
2023-02-05T01:05:04.482Z,7.70
2023-02-05T01:06:07.853Z,4.93
2023-02-05T01:07:11.192Z,4.14
2023-02-05T01:08:14.936Z,4.56
2023-02-05T01:09:17.905Z,4.73
2023-02-05T01:10:21.095Z,5.06
2023-02-05T01:11:24.069Z,6.09
2023-02-05T01:12:26.956Z,4.97
2023-02-05T01:13:30.356Z,3.88
2023-02-05T01:14:33.410Z,3.45
2023-02-05T01:15:37.092Z,4.32
2023-02-05T01:16:40.289Z,6.89
2023-02-05T01:17:43.596Z,7.55
2023-02-05T01:18:47.060Z,6.26
2023-02-05T01:19:49.941Z,4.34
2023-02-05T01:20:53.016Z,4.93
2023-02-05T01:21:56.093Z,6.46
2023-02-05T01:22:59.278Z,6.72
2023-02-05T01:24:02.654Z,6.81
2023-02-05T01:25:05.843Z,5.87
2023-02-05T01:26:08.934Z,6.52
2023-02-05T01:27:12.005Z,6.55
2023-02-05T01:28:15.066Z,6.58
2023-02-05T01:29:18.365Z,4.99
2023-02-05T01:30:21.462Z,6.25
2023-02-05T01:31:24.766Z,6.04
2023-02-05T01:32:28.000Z,5.45
2023-02-05T01:33:31.088Z,6.40
2023-02-05T01:34:34.539Z,6.81
2023-02-05T01:35:37.499Z,7.31
2023-02-05T01:36:40.631Z,6.38
2023-02-05T01:37:43.408Z,6.05
2023-02-05T01:38:46.280Z,6.38
2023-02-05T01:39:49.307Z,6.04
2023-02-05T01:40:52.131Z,6.24
2023-02-05T01:41:55.001Z,4.38
2023-02-05T01:42:58.007Z,5.60
2023-02-05T01:44:01.277Z,4.72
2023-02-05T01:45:04.046Z,5.39
2023-02-05T01:46:07.150Z,8.48
2023-02-05T01:47:09.992Z,6.59
2023-02-05T01:48:12.928Z,6.99
2023-02-05T01:49:16.025Z,5.79
2023-02-05T01:50:19.532Z,5.14
2023-02-05T01:51:22.511Z,5.02
2023-02-05T01:52:25.695Z,5.07
2023-02-05T01:53:28.582Z,5.59
2023-02-05T01:54:31.950Z,5.99
2023-02-05T01:55:35.694Z,5.85
2023-02-05T01:56:39.148Z,5.61
2023-02-05T01:57:42.212Z,5.92
2023-02-05T01:58:45.596Z,5.46
2023-02-05T01:59:48.602Z,5.68
2023-02-05T04:04:13.354Z,8.95
2023-02-05T04:05:16.634Z,3.83
2023-02-05T04:06:19.834Z,8.68
2023-02-05T04:07:23.114Z,5.95
2023-02-05T04:08:26.448Z,6.04
2023-02-05T04:09:29.564Z,6.22
2023-02-05T04:10:32.894Z,6.02
2023-02-05T04:11:35.834Z,5.96
2023-02-05T04:12:38.910Z,6.99
2023-02-05T04:13:42.007Z,5.82
2023-02-05T04:14:45.177Z,6.09
2023-02-05T04:15:48.151Z,5.89
2023-02-05T04:16:51.123Z,6.38
2023-02-05T04:17:54.128Z,6.05
2023-02-05T04:18:57.179Z,7.52
2023-02-05T04:20:00.104Z,5.42
2023-02-05T04:21:02.948Z,4.65
2023-02-05T04:22:06.228Z,4.21
2023-02-05T04:23:09.224Z,4.79
2023-02-05T04:24:12.539Z,6.52
2023-02-05T04:25:15.767Z,4.40
2023-02-05T04:26:18.751Z,3.34
2023-02-05T04:27:21.824Z,4.54
2023-02-05T04:28:24.699Z,5.05
2023-02-05T04:29:27.891Z,5.19
2023-02-05T04:30:30.983Z,4.66
2023-02-05T04:31:33.759Z,4.03
2023-02-05T04:32:36.919Z,4.60
2023-02-05T04:33:39.904Z,4.25
2023-02-05T04:34:43.204Z,4.72
2023-02-05T04:35:46.591Z,5.09
2023-02-05T04:36:49.454Z,5.64
2023-02-05T04:37:52.536Z,7.20
2023-02-05T04:38:55.495Z,3.36
2023-02-05T04:39:58.490Z,5.12
2023-02-05T04:41:01.343Z,4.22
2023-02-05T04:42:04.429Z,4.73
2023-02-05T04:43:07.301Z,4.95
2023-02-05T04:44:10.285Z,5.78
2023-02-05T04:45:13.395Z,5.56
2023-02-05T04:46:16.682Z,4.95
2023-02-05T04:47:19.815Z,6.92
2023-02-05T04:48:23.035Z,6.48
2023-02-05T04:49:26.203Z,7.88
2023-02-05T04:50:29.073Z,4.57
2023-02-05T04:51:32.972Z,5.74
2023-02-05T04:52:35.774Z,6.46
2023-02-05T04:53:38.761Z,8.45
2023-02-05T04:54:41.689Z,6.09
2023-02-05T04:55:44.825Z,5.67
2023-02-05T04:56:48.305Z,5.49
2023-02-05T04:57:52.734Z,6.49
2023-02-05T04:58:56.077Z,5.27
2023-02-05T04:59:59.251Z,3.65
2023-02-05T05:01:02.258Z,5.72
2023-02-05T05:02:05.533Z,5.78
2023-02-05T05:03:08.348Z,5.23
2023-02-05T05:04:11.368Z,5.85
2023-02-05T05:05:14.525Z,7.19
2023-02-05T05:06:17.355Z,5.97
2023-02-05T05:07:20.393Z,5.49
2023-02-05T05:08:23.264Z,5.15
2023-02-05T05:09:26.022Z,4.57
2023-02-05T05:10:29.021Z,5.15
2023-02-05T05:11:31.672Z,5.65
2023-02-05T05:12:34.959Z,5.12
2023-02-05T05:13:37.619Z,7.04
2023-02-05T05:14:40.500Z,5.08
2023-02-05T05:15:43.508Z,6.62
2023-02-05T05:16:46.357Z,5.59
2023-02-05T05:17:49.635Z,5.35
2023-02-05T05:18:52.737Z,4.92
2023-02-05T05:19:55.701Z,4.90
2023-02-05T05:20:58.774Z,5.58
2023-02-05T05:22:01.764Z,5.38
2023-02-05T05:23:04.726Z,5.59
2023-02-05T05:24:07.897Z,7.59
2023-02-05T05:25:10.893Z,5.89
2023-02-05T05:26:13.882Z,5.12
2023-02-05T05:27:16.758Z,5.42
2023-02-05T05:28:19.810Z,5.84
2023-02-05T05:29:22.801Z,6.71
2023-02-05T05:30:25.764Z,7.12
2023-02-05T05:31:29.052Z,5.73
2023-02-05T05:32:31.937Z,5.84
2023-02-05T05:33:35.419Z,4.80
2023-02-05T05:34:39.539Z,5.36
2023-02-05T05:35:42.608Z,7.53
2023-02-05T05:36:45.677Z,7.28
2023-02-05T05:37:48.475Z,6.82
2023-02-05T05:38:51.341Z,4.85
2023-02-05T05:39:54.092Z,4.48
2023-02-05T05:40:56.835Z,5.91
2023-02-05T05:41:59.640Z,6.97
2023-02-05T05:43:02.323Z,5.66
2023-02-05T05:44:05.200Z,6.33
2023-02-05T05:45:07.959Z,5.01
2023-02-05T05:46:10.911Z,5.02
2023-02-05T05:47:13.617Z,6.02
2023-02-05T05:48:16.495Z,6.12
2023-02-05T05:49:19.674Z,4.38
2023-02-05T05:50:22.534Z,4.49
2023-02-05T05:51:25.670Z,5.12
2023-02-05T05:52:29.792Z,5.88
2023-02-05T05:53:33.117Z,5.71
2023-02-05T05:54:36.511Z,4.93
2023-02-05T05:55:39.366Z,7.55
2023-02-05T05:56:42.408Z,5.99
2023-02-05T05:57:45.558Z,4.64
2023-02-05T05:58:48.907Z,4.57
2023-02-05T05:59:52.087Z,3.84
2023-02-05T06:00:55.163Z,5.73
2023-02-05T06:01:58.246Z,4.92
2023-02-05T06:03:01.434Z,5.92
2023-02-05T06:04:04.536Z,5.00
2023-02-05T06:05:07.592Z,6.82
2023-02-05T06:06:10.693Z,4.65
2023-02-05T06:07:13.554Z,5.00
2023-02-05T06:08:16.563Z,6.64
2023-02-05T06:09:19.814Z,5.44
2023-02-05T06:10:23.193Z,5.44
2023-02-05T06:11:26.269Z,5.10
2023-02-05T06:12:29.064Z,5.85
2023-02-05T06:13:32.015Z,5.30
2023-02-05T06:14:34.989Z,6.28
2023-02-05T06:15:38.332Z,4.68
2023-02-05T06:16:41.517Z,5.14
2023-02-05T06:17:44.569Z,4.72
2023-02-05T06:18:47.622Z,5.04
2023-02-05T06:19:50.730Z,5.14
2023-02-05T06:20:54.062Z,5.56
2023-02-05T06:21:57.087Z,5.01
2023-02-05T06:23:05.892Z,5.27
2023-02-05T06:24:08.768Z,5.35
2023-02-05T06:25:11.740Z,5.26
2023-02-05T06:26:15.031Z,5.57
2023-02-05T06:27:17.792Z,6.90
2023-02-05T06:28:20.673Z,5.12
2023-02-05T06:29:23.350Z,5.27
2023-02-05T06:30:26.221Z,5.42
2023-02-05T06:31:29.138Z,5.75
2023-02-05T06:32:31.961Z,5.33
2023-02-05T06:33:34.746Z,4.94
2023-02-05T06:34:37.923Z,5.09
2023-02-05T06:35:40.692Z,6.49
2023-02-05T06:36:43.789Z,6.01
2023-02-05T06:37:47.735Z,7.09
2023-02-05T06:38:51.179Z,7.39
2023-02-05T06:39:54.466Z,7.42
2023-02-05T06:40:57.519Z,5.16
2023-02-05T06:42:01.110Z,4.81
2023-02-05T06:43:04.203Z,4.79
2023-02-05T06:44:07.172Z,6.29
2023-02-05T06:45:09.870Z,6.48
2023-02-05T06:46:12.535Z,6.14
2023-02-05T06:47:15.383Z,6.90
2023-02-05T06:48:17.979Z,7.25
2023-02-05T06:49:20.628Z,8.08
2023-02-05T06:50:23.491Z,7.22
2023-02-05T06:51:26.285Z,6.52
2023-02-05T06:52:29.344Z,5.59
2023-02-05T06:53:32.225Z,6.41
2023-02-05T06:54:34.883Z,5.92
2023-02-05T06:55:37.680Z,7.08
2023-02-05T06:56:40.328Z,4.38
2023-02-05T06:57:43.516Z,5.74
2023-02-05T06:58:46.693Z,5.14
2023-02-05T06:59:49.724Z,6.08
2023-02-05T07:00:52.856Z,7.74
2023-02-05T07:01:55.670Z,6.24
2023-02-05T07:02:59.174Z,5.80
2023-02-05T07:04:02.413Z,6.15
2023-02-05T07:05:05.522Z,6.97
2023-02-05T07:06:08.677Z,6.66
2023-02-05T07:07:11.659Z,6.68
2023-02-05T07:08:14.639Z,9.25
2023-02-05T07:09:17.596Z,7.55
2023-02-05T07:10:20.336Z,6.54
2023-02-05T07:11:23.244Z,8.36
2023-02-05T07:12:26.141Z,5.97
2023-02-05T07:13:29.097Z,6.01
2023-02-05T07:14:32.074Z,6.85
2023-02-05T07:15:35.376Z,6.28
2023-02-05T07:16:38.550Z,6.76
2023-02-05T07:17:41.410Z,8.12
2023-02-05T07:18:45.256Z,8.81
2023-02-05T07:19:48.282Z,8.55
2023-02-05T07:20:51.280Z,6.68
2023-02-05T07:21:54.139Z,6.53
2023-02-05T07:22:57.122Z,7.97
2023-02-05T07:24:00.186Z,6.78
2023-02-05T07:25:04.606Z,8.22
2023-02-05T07:26:07.795Z,8.07
2023-02-05T07:27:10.817Z,7.40
2023-02-05T07:28:13.795Z,8.92
2023-02-05T07:29:17.441Z,7.34
2023-02-05T07:30:20.408Z,8.73
2023-02-05T07:31:23.532Z,7.85
2023-02-05T07:32:27.497Z,6.88
2023-02-05T07:33:30.966Z,9.51
2023-02-05T07:34:33.873Z,8.44
2023-02-05T07:35:36.868Z,9.60
2023-02-05T07:36:39.608Z,8.12
2023-02-05T07:37:42.487Z,6.75
2023-02-05T07:38:45.250Z,5.88
2023-02-05T07:39:48.550Z,7.42
2023-02-05T07:40:51.635Z,8.52
2023-02-05T07:41:55.022Z,8.66
2023-02-05T07:42:57.679Z,6.96
2023-02-05T07:44:00.749Z,6.78
2023-02-05T07:45:03.716Z,7.26
2023-02-05T07:46:07.718Z,7.35
2023-02-05T07:47:11.177Z,6.74
2023-02-05T07:48:14.105Z,7.90
2023-02-05T07:49:17.175Z,6.66
2023-02-05T07:50:20.160Z,8.23
2023-02-05T07:51:23.222Z,8.33
2023-02-05T07:52:26.231Z,8.00
2023-02-05T07:53:29.514Z,7.54
2023-02-05T07:54:32.585Z,5.80
2023-02-05T07:55:35.898Z,6.84
2023-02-05T07:56:39.032Z,6.29
2023-02-05T07:57:42.047Z,5.92
2023-02-05T07:58:45.094Z,5.98
2023-02-05T07:59:47.990Z,4.87
2023-02-05T08:00:51.177Z,4.65
2023-02-05T08:01:54.079Z,6.41
2023-02-05T08:02:57.112Z,6.11
2023-02-05T08:04:00.666Z,6.80
2023-02-05T08:05:03.453Z,6.90
2023-02-05T08:06:06.549Z,7.60
2023-02-05T08:07:09.247Z,6.61
2023-02-05T08:08:12.155Z,5.35
2023-02-05T08:09:15.378Z,6.70
2023-02-05T08:10:18.068Z,6.48
2023-02-05T08:11:21.751Z,7.06
2023-02-05T08:12:24.566Z,6.85
2023-02-05T08:13:27.688Z,8.27
2023-02-05T08:14:30.768Z,7.55
2023-02-05T08:15:34.227Z,6.71
2023-02-05T08:16:37.388Z,7.69
2023-02-05T08:17:40.427Z,6.49
2023-02-05T08:18:43.601Z,6.88
2023-02-05T08:19:46.602Z,6.86
2023-02-05T08:20:49.664Z,7.20
2023-02-05T08:21:52.858Z,5.05
2023-02-05T08:22:55.838Z,7.38
2023-02-05T08:23:59.235Z,5.66
2023-02-05T08:25:02.438Z,4.98
2023-02-05T08:26:05.468Z,7.48
2023-02-05T08:27:08.553Z,8.15
2023-02-05T08:28:11.490Z,6.28
2023-02-05T08:29:14.609Z,5.42
2023-02-05T08:30:17.699Z,6.03
2023-02-05T08:31:20.585Z,7.85
2023-02-05T08:32:23.731Z,6.92
2023-02-05T08:33:26.826Z,8.66
2023-02-05T08:34:29.817Z,6.70
2023-02-05T08:35:34.255Z,8.83
2023-02-05T08:36:37.280Z,7.61
2023-02-05T08:37:40.355Z,8.89
2023-02-05T08:38:43.335Z,9.95
2023-02-05T08:39:46.361Z,11.35
2023-02-05T08:40:49.601Z,8.52
2023-02-05T08:41:52.377Z,9.22
2023-02-05T08:42:55.472Z,8.52
2023-02-05T08:43:58.641Z,10.30
2023-02-05T08:45:01.728Z,12.82
2023-02-05T08:46:04.650Z,12.12
2023-02-05T08:47:07.715Z,12.60
2023-02-05T08:48:10.944Z,13.35
2023-02-05T08:49:14.133Z,10.86
2023-02-05T08:50:17.202Z,9.55
2023-02-05T08:51:20.211Z,7.95
2023-02-05T08:59:46.152Z,10.12
2023-02-05T09:00:49.147Z,8.54
2023-02-05T09:01:52.106Z,8.00
2023-02-05T09:02:54.986Z,11.15
2023-02-05T09:03:57.750Z,11.35
2023-02-05T09:05:08.529Z,11.90
2023-02-05T09:06:05.246Z,8.74
2023-02-05T09:07:08.030Z,9.75
2023-02-05T09:08:10.889Z,11.38
2023-02-05T09:09:13.862Z,11.17
2023-02-05T09:10:16.600Z,9.28
2023-02-05T09:11:19.417Z,8.14
2023-02-05T09:12:22.182Z,8.64
2023-02-05T09:13:24.847Z,6.95
2023-02-05T09:14:27.524Z,9.28
2023-02-05T09:15:30.188Z,10.95
2023-02-05T09:16:32.787Z,15.22
2023-02-05T09:17:35.735Z,10.52
2023-02-05T09:18:38.608Z,10.94
2023-02-05T09:19:41.324Z,9.92
2023-02-05T09:20:44.252Z,9.14
2023-02-05T09:21:47.052Z,9.37
2023-02-05T09:22:49.957Z,12.32
2023-02-05T09:23:52.895Z,12.75
2023-02-05T09:24:55.759Z,12.20
2023-02-05T09:25:58.535Z,11.42
2023-02-05T09:27:01.823Z,11.98
2023-02-05T09:28:04.853Z,9.35
2023-02-05T09:29:07.799Z,9.68
2023-02-05T09:30:10.669Z,9.11
2023-02-05T09:31:13.801Z,10.03
2023-02-05T09:32:17.004Z,13.28
2023-02-05T09:33:19.887Z,11.88
2023-02-05T09:34:22.954Z,9.50
2023-02-05T09:35:25.857Z,8.30
2023-02-05T09:36:28.715Z,9.49
2023-02-05T09:37:31.482Z,9.12
2023-02-05T09:38:34.460Z,10.19
2023-02-05T09:40:18.500Z,8.58
2023-02-05T09:40:41.650Z,10.69
2023-02-05T09:41:44.745Z,11.35
2023-02-05T09:42:47.639Z,11.22
2023-02-05T09:43:50.493Z,18.86
2023-02-05T09:44:53.362Z,11.69
2023-02-05T09:45:56.747Z,8.85
2023-02-05T09:46:59.510Z,9.91
2023-02-05T09:48:02.591Z,11.79
2023-02-05T09:49:05.570Z,11.08
2023-02-05T09:50:08.447Z,12.59
2023-02-05T09:51:11.241Z,10.82
2023-02-05T09:52:13.977Z,12.84
2023-02-05T09:53:16.969Z,15.92
2023-02-05T09:54:19.645Z,13.52
2023-02-05T09:55:22.699Z,13.98
2023-02-05T09:56:25.592Z,12.95
2023-02-05T09:57:28.905Z,11.35
2023-02-05T09:58:31.948Z,13.75
2023-02-05T09:59:34.731Z,14.44
2023-02-05T10:00:37.288Z,16.63
2023-02-05T10:01:40.124Z,12.60
2023-02-05T10:02:43.042Z,13.78
2023-02-05T10:03:46.126Z,16.09
2023-02-05T10:04:48.897Z,13.24
2023-02-05T10:05:51.665Z,15.04
2023-02-05T10:06:54.755Z,14.62
2023-02-05T10:07:57.556Z,13.86
2023-02-05T10:09:00.595Z,14.38
2023-02-05T10:10:03.475Z,15.02
2023-02-05T10:11:06.450Z,15.18
2023-02-05T10:12:09.429Z,13.05
2023-02-05T10:13:12.227Z,14.12
2023-02-05T10:14:14.957Z,16.32
2023-02-05T10:15:17.986Z,16.18
2023-02-05T10:16:20.973Z,17.32
2023-02-05T10:17:23.787Z,14.80
2023-02-05T10:18:26.771Z,15.01
2023-02-05T10:19:29.351Z,13.73
2023-02-05T10:20:31.909Z,12.80
2023-02-05T10:21:34.980Z,16.07
2023-02-05T10:22:37.869Z,17.23
2023-02-05T10:23:40.783Z,16.94
2023-02-05T10:24:43.611Z,14.72
2023-02-05T10:25:46.690Z,15.85
2023-02-05T10:26:49.654Z,15.57
2023-02-05T10:27:52.576Z,16.25
2023-02-05T10:28:55.816Z,14.71
2023-02-05T10:29:58.500Z,15.23
2023-02-05T10:31:01.178Z,14.30
2023-02-05T10:32:03.728Z,15.32
2023-02-05T10:33:06.508Z,14.50
2023-02-05T10:34:09.372Z,16.26
2023-02-05T10:35:12.247Z,15.12
2023-02-05T10:36:15.435Z,15.91
2023-02-05T10:37:18.227Z,13.53
2023-02-05T10:38:20.875Z,17.42
2023-02-05T10:39:23.650Z,16.93
2023-02-05T10:40:26.416Z,15.76
2023-02-05T10:41:29.187Z,18.55
2023-02-05T10:42:31.867Z,14.84
2023-02-05T10:43:34.570Z,16.32
2023-02-05T10:44:37.193Z,20.08
2023-02-05T10:45:39.916Z,18.06
2023-02-05T10:46:42.592Z,15.04
2023-02-05T10:47:45.311Z,14.67
2023-02-05T10:48:47.893Z,17.55
2023-02-05T10:49:50.657Z,16.58
2023-02-05T10:50:53.314Z,16.98
2023-02-05T10:51:56.107Z,15.19
2023-02-05T10:52:58.769Z,14.78
2023-02-05T10:54:01.537Z,17.11
2023-02-05T10:55:04.110Z,16.67
2023-02-05T10:56:06.804Z,16.56
2023-02-05T10:57:09.438Z,18.02
2023-02-05T10:58:12.433Z,15.08
2023-02-05T10:59:15.299Z,14.49
2023-02-05T11:00:18.601Z,18.32
2023-02-05T11:01:21.510Z,16.12
2023-02-05T11:02:24.453Z,19.09
2023-02-05T11:03:27.408Z,16.72
2023-02-05T11:04:30.312Z,16.16
2023-02-05T11:05:33.405Z,16.35
2023-02-05T11:06:36.429Z,16.78
2023-02-05T11:07:39.309Z,15.31
2023-02-05T11:08:42.317Z,19.08
2023-02-05T11:09:45.056Z,17.62
2023-02-05T11:10:48.354Z,15.51
2023-02-05T11:11:51.214Z,16.35
2023-02-05T11:12:53.998Z,16.68
2023-02-05T11:13:56.767Z,17.56
2023-02-05T11:14:59.334Z,19.39
2023-02-05T11:16:02.359Z,17.80
2023-02-05T11:17:05.177Z,17.52
2023-02-05T11:18:08.060Z,18.92
2023-02-05T11:19:10.932Z,15.78
2023-02-05T11:20:13.809Z,16.80
2023-02-05T11:21:16.668Z,18.85
2023-02-05T11:22:19.554Z,16.63
2023-02-05T11:23:22.330Z,14.12
2023-02-05T11:24:25.211Z,16.02
2023-02-05T11:25:29.815Z,16.62
2023-02-05T11:26:32.688Z,17.95
2023-02-05T11:27:35.464Z,17.12
2023-02-05T11:28:38.451Z,12.52
2023-02-05T11:29:41.213Z,17.12
2023-02-05T11:30:52.364Z,17.81
2023-02-05T11:31:48.654Z,15.04
2023-02-05T11:32:51.631Z,12.87
2023-02-05T11:33:54.449Z,14.38
2023-02-05T11:34:57.425Z,17.33
2023-02-05T11:36:00.306Z,16.67
2023-02-05T11:37:03.090Z,15.39
2023-02-05T11:38:06.725Z,16.63
2023-02-05T11:39:09.740Z,16.52
2023-02-05T11:40:12.772Z,15.86
2023-02-05T11:41:15.659Z,17.22
2023-02-05T11:42:18.781Z,15.26
2023-02-05T11:43:21.773Z,14.94
2023-02-05T11:44:24.531Z,15.63
2023-02-05T11:45:27.311Z,19.37
2023-02-05T11:46:30.059Z,16.25
2023-02-05T11:47:32.644Z,15.00
2023-02-05T11:48:35.351Z,17.63
2023-02-05T11:49:37.944Z,14.08
2023-02-05T11:50:40.554Z,18.06
2023-02-05T11:51:43.119Z,19.26
2023-02-05T11:52:45.890Z,17.29
2023-02-05T11:53:48.777Z,14.15
2023-02-05T11:54:51.558Z,14.22
2023-02-05T11:55:54.306Z,18.15
2023-02-05T11:56:57.193Z,17.98
2023-02-05T11:58:00.372Z,15.40
2023-02-05T11:59:04.633Z,19.38
2023-02-05T12:00:07.391Z,16.11
2023-02-05T12:01:10.192Z,17.51
2023-02-05T12:02:13.110Z,17.30
2023-02-05T12:03:16.427Z,14.81
2023-02-05T12:04:19.268Z,16.24
2023-02-05T12:05:22.256Z,19.58
2023-02-05T12:06:25.320Z,15.49
2023-02-05T12:07:28.456Z,15.34
2023-02-05T12:08:31.272Z,16.24
2023-02-05T12:09:34.350Z,18.65
2023-02-05T12:10:37.745Z,18.49
2023-02-05T12:11:40.621Z,16.05
2023-02-05T12:12:43.512Z,17.92
2023-02-05T12:13:46.489Z,18.65
2023-02-05T12:14:50.977Z,14.55
2023-02-05T12:15:53.776Z,16.15
2023-02-05T12:16:56.828Z,17.42
2023-02-05T12:17:59.394Z,20.19
2023-02-05T12:19:02.166Z,16.82
2023-02-05T12:20:04.844Z,16.83
2023-02-05T12:21:07.712Z,16.96
2023-02-05T12:22:10.786Z,18.28
2023-02-05T12:23:13.674Z,21.18
2023-02-05T12:24:16.551Z,14.31
2023-02-05T12:25:19.418Z,18.04
2023-02-05T12:26:22.277Z,21.18
2023-02-05T12:27:25.265Z,19.82
2023-02-05T12:28:28.171Z,16.39
2023-02-05T12:29:31.420Z,19.12
2023-02-05T12:30:34.100Z,17.34
2023-02-05T12:31:37.009Z,19.30
2023-02-05T12:32:39.936Z,22.07
2023-02-05T12:33:42.816Z,17.68
2023-02-05T12:34:46.100Z,19.27
2023-02-05T12:35:48.867Z,17.98
2023-02-05T12:36:51.748Z,20.55
2023-02-05T12:37:54.612Z,17.41
2023-02-05T12:38:57.489Z,15.82
2023-02-05T12:40:00.589Z,15.42
2023-02-05T12:41:03.448Z,17.98
2023-02-05T12:42:06.418Z,12.83
2023-02-05T12:43:09.295Z,16.38
2023-02-05T12:44:12.180Z,20.19
2023-02-05T12:45:15.278Z,16.32
2023-02-05T12:46:18.082Z,17.41
2023-02-05T12:47:21.213Z,21.30
2023-02-05T12:48:24.294Z,17.81
2023-02-05T12:49:27.069Z,22.84
2023-02-05T12:50:30.133Z,17.50
2023-02-05T12:51:33.025Z,17.93
2023-02-05T12:52:35.885Z,17.23
2023-02-05T12:53:39.175Z,18.58
2023-02-05T12:54:42.053Z,17.28
2023-02-05T12:55:45.015Z,15.99
2023-02-05T12:56:48.087Z,17.21
2023-02-05T12:57:50.569Z,20.69
2023-02-05T12:58:53.445Z,17.83
2023-02-05T12:59:56.351Z,21.29
2023-02-05T13:00:59.227Z,17.73
2023-02-05T13:02:02.074Z,21.98
2023-02-05T13:03:04.810Z,17.34
2023-02-05T13:04:07.845Z,16.92
2023-02-05T13:05:10.791Z,20.11
2023-02-05T13:06:13.869Z,20.40
2023-02-05T13:07:16.857Z,17.04
2023-02-05T13:08:19.738Z,21.84
2023-02-05T13:09:22.519Z,18.55
2023-02-05T13:10:25.075Z,19.55
2023-02-05T13:11:28.154Z,18.68
2023-02-05T13:12:30.930Z,20.12
2023-02-05T13:13:33.795Z,20.12
2023-02-05T13:14:36.695Z,19.71
2023-02-05T13:15:39.546Z,19.44
2023-02-05T13:16:42.897Z,16.65
2023-02-05T13:17:45.700Z,17.81
2023-02-05T13:18:48.709Z,17.37
2023-02-05T13:19:51.562Z,18.98
2023-02-05T13:20:54.682Z,17.68
2023-02-05T13:21:57.606Z,20.62
2023-02-05T13:23:00.760Z,21.18
2023-02-05T13:24:03.763Z,20.09
2023-02-05T13:25:06.641Z,18.78
2023-02-05T13:26:09.533Z,15.78
2023-02-05T13:27:12.589Z,19.24
2023-02-05T13:28:15.394Z,21.11
2023-02-05T13:29:18.346Z,19.66
2023-02-05T13:30:21.295Z,16.77
2023-02-05T13:31:24.570Z,15.59
2023-02-05T13:32:27.598Z,14.97
2023-02-05T13:33:30.275Z,17.10
2023-02-05T13:34:32.844Z,15.87
2023-02-05T13:35:35.756Z,18.34
2023-02-05T13:36:38.591Z,21.08
2023-02-05T13:37:41.317Z,18.25
2023-02-05T13:38:43.933Z,17.73
2023-02-05T13:39:46.699Z,17.55
2023-02-05T13:40:49.385Z,18.41
2023-02-05T13:41:51.942Z,16.13
2023-02-05T13:42:54.713Z,16.15
2023-02-05T13:43:57.472Z,18.66
2023-02-05T13:45:00.052Z,19.48
2023-02-05T13:46:02.755Z,17.61
2023-02-05T13:47:05.387Z,16.07
2023-02-05T13:48:08.153Z,14.61
2023-02-05T13:49:10.830Z,15.76
2023-02-05T13:50:13.394Z,20.93
2023-02-05T13:51:15.956Z,17.81
2023-02-05T13:52:18.733Z,15.02
2023-02-05T13:53:22.952Z,16.90
2023-02-05T13:54:25.829Z,19.38
2023-02-05T13:55:28.469Z,22.38
2023-02-05T13:56:31.254Z,20.83
2023-02-05T13:57:34.252Z,15.13
2023-02-05T13:58:36.891Z,17.55
2023-02-05T13:59:39.772Z,18.09
2023-02-05T14:00:42.637Z,17.12
2023-02-05T14:01:45.584Z,18.46
2023-02-05T14:02:48.385Z,20.16
2023-02-05T14:03:51.664Z,16.37
2023-02-05T14:04:54.440Z,16.02
2023-02-05T14:05:57.322Z,19.96
2023-02-05T14:06:59.977Z,18.92
2023-02-05T14:08:02.862Z,16.59
2023-02-05T14:09:06.037Z,16.59
2023-02-05T14:10:08.990Z,17.32
2023-02-05T14:11:11.797Z,16.32
2023-02-05T14:12:14.679Z,17.20
2023-02-05T14:13:17.434Z,19.56
2023-02-05T14:14:20.554Z,16.28
2023-02-05T14:15:23.313Z,15.93
2023-02-05T14:16:26.174Z,15.89
2023-02-05T14:17:29.049Z,15.55
2023-02-05T14:18:31.926Z,16.91
2023-02-05T14:19:34.898Z,19.78
2023-02-05T14:20:37.768Z,18.34
2023-02-05T14:21:40.550Z,20.73
2023-02-05T14:22:43.210Z,16.61
2023-02-05T14:23:46.032Z,23.09
2023-02-05T14:24:49.053Z,18.86
2023-02-05T14:25:51.848Z,21.32
2023-02-05T14:26:54.703Z,18.15
2023-02-05T14:27:57.602Z,16.48
2023-02-05T14:29:00.465Z,15.55
2023-02-05T14:30:03.432Z,16.78
2023-02-05T14:31:06.517Z,17.03
2023-02-05T14:32:09.313Z,15.30
2023-02-05T14:33:12.053Z,15.75
2023-02-05T14:34:22.226Z,17.39
2023-02-05T14:35:19.653Z,18.66
2023-02-05T14:36:22.568Z,17.63
2023-02-05T14:37:25.398Z,18.44
2023-02-05T14:38:28.701Z,17.38
2023-02-05T14:39:31.677Z,13.77
2023-02-05T14:40:34.755Z,15.38
2023-02-05T14:41:37.861Z,16.55
2023-02-05T14:42:40.591Z,15.17
2023-02-05T14:43:46.233Z,16.65
2023-02-05T14:44:49.033Z,16.27
2023-02-05T14:45:51.680Z,19.60
2023-02-05T14:46:54.456Z,17.18
2023-02-05T14:47:57.116Z,16.91
2023-02-05T14:48:59.741Z,16.60
2023-02-05T14:50:02.454Z,16.36
2023-02-05T14:51:05.440Z,18.56
2023-02-05T14:52:08.111Z,18.92
2023-02-05T14:53:10.827Z,18.93
2023-02-05T14:54:13.337Z,20.45
2023-02-05T14:55:16.216Z,16.01
2023-02-05T14:56:19.306Z,17.16
2023-02-05T14:57:22.066Z,15.09
2023-02-05T14:58:25.143Z,15.85
2023-02-05T14:59:27.913Z,17.44
2023-02-05T15:00:30.788Z,17.78
2023-02-05T15:01:33.785Z,16.78
2023-02-05T15:02:36.726Z,18.72
2023-02-05T15:03:39.512Z,17.84
2023-02-05T15:04:42.306Z,19.25
2023-02-05T15:05:45.110Z,17.57
2023-02-05T15:06:48.031Z,19.35
2023-02-05T15:07:50.871Z,18.95
2023-02-05T15:08:53.785Z,19.91
2023-02-05T15:09:56.550Z,16.37
2023-02-05T15:10:59.529Z,15.25
2023-02-05T15:12:02.721Z,16.36
2023-02-05T15:13:05.487Z,16.28
2023-02-05T15:14:08.472Z,18.64
2023-02-05T15:15:11.231Z,17.65
2023-02-05T15:16:14.240Z,16.13
2023-02-05T15:17:17.285Z,17.09
2023-02-05T15:18:20.066Z,21.48
2023-02-05T15:19:23.522Z,16.06
2023-02-05T15:20:26.533Z,20.19
2023-02-05T15:21:29.413Z,18.77
2023-02-05T15:22:32.591Z,18.74
2023-02-05T15:23:35.470Z,17.89
2023-02-05T15:24:38.238Z,15.86
2023-02-05T15:25:41.144Z,14.80
2023-02-05T15:26:43.916Z,19.88
2023-02-05T15:27:46.945Z,20.19
2023-02-05T15:30:06.445Z,17.19
2023-02-05T15:31:09.452Z,14.28
2023-02-05T15:32:12.300Z,15.82
2023-02-05T15:33:15.075Z,20.17
2023-02-05T15:34:18.047Z,21.19
2023-02-05T15:35:20.920Z,15.15
2023-02-05T15:36:23.811Z,20.43
2023-02-05T15:37:26.687Z,19.10
2023-02-05T15:39:45.536Z,20.65
2023-02-05T15:40:48.498Z,18.96
2023-02-05T15:41:51.391Z,20.38
2023-02-05T15:42:54.090Z,17.72
2023-02-05T15:43:56.811Z,17.49
2023-02-05T15:44:59.701Z,17.63
2023-02-05T15:46:02.760Z,19.98
2023-02-05T15:48:21.939Z,20.06
2023-02-05T15:49:24.916Z,17.97
2023-02-05T15:50:27.799Z,18.30
2023-02-05T15:51:30.776Z,16.53
2023-02-05T15:52:33.535Z,15.97
2023-02-05T15:53:36.425Z,16.90
2023-02-05T15:54:38.994Z,14.82
2023-02-05T15:56:55.191Z,20.44
2023-02-05T15:57:58.246Z,19.75
2023-02-05T15:59:00.856Z,18.89
2023-02-05T16:00:03.484Z,19.48
2023-02-05T16:01:06.355Z,15.02